Time;durP1;ratioP1;P1;durP2;ratioP2;P2;SDS_P1;SDS_P2;PMS_P1;PMS_P2;Temp;Humidity;BMP_temperature;BMP_pressure;BME280_temperature;BME280_humidity;BME280_pressure;Samples;Min_cycle;Max_cycle;Signal;HPM_P1;HPM_P2
2021/12/20 14:33:35;;;;;;;17.82;10.63;;;;;;;-0.40;100.00;98701.66;2345886;76;22893;-89
2021/12/20 14:36:37;;;;;;;27.37;16.42;;;;;;;-0.45;100.00;98712.77;2315411;77;20950;-83
2021/12/20 14:39:38;;;;;;;19.02;12.75;;;;;;;-0.43;100.00;98709.61;2315634;77;21563;-84
2021/12/20 14:42:39;;;;;;;20.43;12.55;;;;;;;-0.37;100.00;98706.58;2315655;77;21031;-83
2021/12/20 14:45:40;;;;;;;15.32;10.80;;;;;;;-0.32;100.00;98725.09;2315756;77;21505;-85
2021/12/20 14:48:44;;;;;;;16.67;11.03;;;;;;;-0.27;100.00;98715.77;2315773;77;20973;-87
2021/12/20 14:51:43;;;;;;;25.62;13.90;;;;;;;-0.22;100.00;98709.81;2315799;76;21586;-87
2021/12/20 14:54:44;;;;;;;23.32;14.18;;;;;;;-0.18;100.00;98721.53;2315893;77;20961;-88
2021/12/20 14:57:45;;;;;;;23.45;11.93;;;;;;;-0.15;100.00;98711.01;2315747;77;21593;-88
2021/12/20 15:00:47;;;;;;;16.95;10.30;;;;;;;-0.12;100.00;98735.70;2315861;77;20968;-86
2021/12/20 15:03:48;;;;;;;19.62;10.88;;;;;;;-0.10;100.00;98732.06;2315623;77;21023;-84
2021/12/20 15:06:49;;;;;;;18.30;10.80;;;;;;;-0.02;100.00;98725.08;2315557;77;21051;-89
2021/12/20 15:09:50;;;;;;;18.42;10.23;;;;;;;0.02;100.00;98729.55;2315434;77;21496;-86
2021/12/20 15:12:51;;;;;;;13.30;7.05;;;;;;;0.06;100.00;98729.20;2315654;77;20964;-81
2021/12/20 15:19:03;;;;;;;13.72;7.22;;;;;;;0.09;100.00;98733.30;2159984;82;21529;-88
2021/12/20 15:22:03;;;;;;;6.55;5.45;;;;;;;0.10;100.00;98755.56;2167083;82;21073;-87
2021/12/20 15:25:04;;;;;;;8.93;5.25;;;;;;;0.08;100.00;98756.11;2167688;82;21111;-85
2021/12/20 15:28:05;;;;;;;8.38;5.83;;;;;;;0.06;100.00;98743.36;2167283;82;21025;-82
2021/12/20 15:31:06;;;;;;;10.15;4.80;;;;;;;0.04;100.00;98765.83;2168100;81;21105;-85
2021/12/20 15:34:07;;;;;;;9.38;4.28;;;;;;;0.04;100.00;98759.39;2174353;82;21022;-88
2021/12/20 15:37:08;;;;;;;11.18;6.40;;;;;;;0.04;100.00;98756.82;2174476;82;21060;-85
2021/12/20 15:40:11;;;;;;;10.80;5.90;;;;;;;0.02;100.00;98770.28;2174025;82;21037;-85
2021/12/20 15:43:11;;;;;;;8.85;5.03;;;;;;;0.00;100.00;98764.42;2173829;82;21097;-83
2021/12/20 15:46:12;;;;;;;14.47;6.33;;;;;;;0.01;100.00;98780.69;2174872;82;21624;-92
2021/12/20 15:49:13;;;;;;;13.05;5.92;;;;;;;-0.10;100.00;98814.91;2173409;82;21002;-87
2021/12/20 15:52:13;;;;;;;3.72;2.47;;;;;;;-0.43;100.00;98804.80;2173260;82;21125;-83
2021/12/20 15:55:14;;;;;;;3.10;2.52;;;;;;;-0.69;100.00;98823.80;2173939;82;21038;-81
2021/12/20 15:58:15;;;;;;;6.12;2.98;;;;;;;-0.90;100.00;98818.39;2173897;82;21021;-82
2021/12/20 16:01:16;;;;;;;5.03;4.03;;;;;;;-1.08;100.00;98821.74;2173594;82;21064;-80
2021/12/20 16:04:17;;;;;;;6.50;3.75;;;;;;;-1.20;100.00;98824.66;2173698;82;21433;-82
2021/12/20 16:07:18;;;;;;;4.20;2.52;;;;;;;-1.30;100.00;98830.52;2174187;82;21006;-79
2021/12/20 16:10:18;;;;;;;17.62;10.48;;;;;;;-1.41;100.00;98844.08;2173659;82;20939;-84
2021/12/20 16:13:22;;;;;;;12.80;7.85;;;;;;;-1.44;100.00;98856.66;2116784;84;21022;-83
2021/12/20 16:16:23;;;;;;;7.97;4.87;;;;;;;-1.45;100.00;98858.05;2305165;77;21025;-82
2021/12/20 16:19:26;;;;;;;7.20;3.95;;;;;;;-1.49;100.00;98856.59;2315152;77;21500;-86
2021/12/20 16:22:27;;;;;;;9.93;4.28;;;;;;;-1.50;100.00;98858.34;2315036;77;21475;-85
2021/12/20 16:25:28;;;;;;;10.88;3.83;;;;;;;-1.49;100.00;98870.72;2315050;77;20999;-88
2021/12/20 16:28:34;;;;;;;6.75;3.80;;;;;;;-1.51;100.00;98874.67;2314263;77;21006;-87
2021/12/20 16:31:43;;;;;;;;;;;;;;;;;;;;;
2021/12/20 16:34:38;;;;;;;11.68;5.62;;;;;;;-1.55;100.00;98883.52;2310294;76;21528;-87
2021/12/20 16:37:39;;;;;;;12.07;4.53;;;;;;;-1.52;100.00;98896.15;2314353;77;20996;-87
2021/12/20 16:40:40;;;;;;;5.40;2.55;;;;;;;-1.61;100.00;98892.89;2314613;77;21048;-80
2021/12/20 16:43:46;;;;;;;2.33;2.12;;;;;;;-1.73;100.00;98886.80;2313839;77;21001;-88
2021/12/20 16:46:45;;;;;;;5.30;3.15;;;;;;;-1.78;100.00;98894.42;2313485;77;21055;-83
2021/12/20 16:49:46;;;;;;;2.85;1.87;;;;;;;-1.85;100.00;98890.13;2314385;77;20997;-83
2021/12/20 16:52:48;;;;;;;4.25;3.05;;;;;;;-1.90;100.00;98899.88;2283217;77;21063;-79
2021/12/20 16:55:50;;;;;;;3.25;2.40;;;;;;;-1.91;100.00;98908.97;2310752;77;21051;-86
2021/12/20 16:58:57;;;;;;;7.12;3.85;;;;;;;-1.95;100.00;98927.56;2314441;77;21048;-82
2021/12/20 17:02:05;;;;;;;3.47;2.35;;;;;;;-1.94;100.00;98918.13;2314128;77;21035;-85
2021/12/20 17:05:08;;;;;;;2.45;2.25;;;;;;;-1.94;100.00;98928.38;2313468;77;21004;-85
2021/12/20 17:08:08;;;;;;;3.52;2.98;;;;;;;-1.96;100.00;98934.91;2314459;76;20994;-86
2021/12/20 17:11:09;;;;;;;3.95;3.67;;;;;;;-1.97;100.00;98936.28;2314073;77;21004;-85
2021/12/20 17:14:10;;;;;;;3.58;2.90;;;;;;;-1.98;100.00;98934.64;2314522;77;20996;-86
2021/12/20 17:17:13;;;;;;;8.48;6.45;;;;;;;-1.99;100.00;98938.13;2314176;77;20965;-82
2021/12/20 17:20:13;;;;;;;7.25;4.60;;;;;;;-2.01;100.00;98950.60;2314557;77;21024;-85
2021/12/20 17:23:14;;;;;;;5.72;2.75;;;;;;;-2.02;100.00;98950.67;2314920;77;21025;-81
2021/12/20 17:26:17;;;;;;;5.25;3.77;;;;;;;-2.02;100.00;98950.67;2314479;77;21043;-85
2021/12/20 17:29:18;;;;;;;4.97;3.27;;;;;;;-2.06;100.00;98946.20;2314360;77;21047;-80
2021/12/20 17:32:19;;;;;;;7.87;3.75;;;;;;;-2.12;100.00;98952.16;2314376;77;21530;-82
2021/12/20 17:35:19;;;;;;;4.08;3.52;;;;;;;-2.18;100.00;98952.09;2314586;77;21054;-84
2021/12/20 17:38:20;;;;;;;4.25;3.40;;;;;;;-2.22;100.00;98963.44;2314579;77;20980;-83
2021/12/20 17:41:21;;;;;;;7.00;4.08;;;;;;;-2.27;100.00;98959.52;2315105;77;21052;-83
2021/12/20 17:44:24;;;;;;;6.75;3.65;;;;;;;-2.31;100.00;98963.53;2314456;77;21287;-81
2021/12/20 17:47:24;;;;;;;8.40;4.60;;;;;;;-2.35;100.00;98967.67;2314622;77;20953;-82
2021/12/20 17:50:25;;;;;;;5.85;3.87;;;;;;;-2.44;100.00;98981.88;2314717;77;21004;-83
2021/12/20 17:53:31;;;;;;;8.28;4.42;;;;;;;-2.48;100.00;98981.67;2314372;77;21098;-83
2021/12/20 17:56:35;;;;;;;9.88;6.12;;;;;;;-2.54;100.00;98982.52;2314385;77;21087;-83
2021/12/20 17:59:34;;;;;;;14.38;6.55;;;;;;;-2.59;100.00;98982.31;2314214;77;20945;-83
2021/12/20 18:02:37;;;;;;;8.05;5.08;;;;;;;-2.62;100.00;98993.22;2313334;77;21070;-82
2021/12/20 18:05:38;;;;;;;5.25;3.77;;;;;;;-2.62;100.00;99003.02;2314438;77;21436;-82
2021/12/20 18:08:39;;;;;;;4.67;4.25;;;;;;;-2.63;100.00;98997.98;2314562;77;21550;-82
2021/12/20 18:11:41;;;;;;;3.95;2.87;;;;;;;-2.64;100.00;98997.61;2314541;77;21518;-83
2021/12/20 18:14:43;;;;;;;4.55;3.40;;;;;;;-2.66;100.00;99001.98;2314559;77;21016;-84
2021/12/20 18:17:44;;;;;;;5.25;3.37;;;;;;;-2.69;100.00;99007.30;2314668;77;20957;-85
2021/12/20 18:20:45;;;;;;;6.92;3.72;;;;;;;-2.72;100.00;99019.84;2314829;77;21439;-82
2021/12/20 18:23:46;;;;;;;5.17;4.00;;;;;;;-2.72;100.00;99030.55;2314959;77;21484;-85
2021/12/20 18:26:47;;;;;;;5.55;3.95;;;;;;;-2.76;100.00;99028.61;2314498;77;21282;-83
2021/12/20 18:29:48;;;;;;;5.17;3.10;;;;;;;-2.78;100.00;99030.44;2314386;77;20972;-82
2021/12/20 18:32:48;;;;;;;4.78;3.02;;;;;;;-2.81;100.00;99042.16;2314252;77;21072;-82
2021/12/20 18:35:49;;;;;;;4.70;3.40;;;;;;;-2.82;100.00;99040.52;2314244;77;21008;-82
2021/12/20 18:38:50;;;;;;;5.55;3.55;;;;;;;-2.84;100.00;99051.28;2314215;77;20997;-83
2021/12/20 18:41:51;;;;;;;12.15;4.90;;;;;;;-2.88;100.00;99055.77;2314225;77;21279;-85
2021/12/20 18:44:55;;;;;;;6.20;3.47;;;;;;;-2.89;100.00;99057.14;2314121;77;21510;-84
2021/12/20 18:47:54;;;;;;;3.35;2.85;;;;;;;-2.93;100.00;99068.00;2313896;76;20977;-82
2021/12/20 18:50:55;;;;;;;5.83;3.65;;;;;;;-2.96;100.00;99079.72;2314745;77;20980;-84
2021/12/20 18:53:56;;;;;;;3.75;2.87;;;;;;;-2.96;100.00;99081.00;2314439;77;20996;-84
2021/12/20 18:56:59;;;;;;;5.78;4.15;;;;;;;-2.96;100.00;99078.89;2313040;77;20969;-86
2021/12/20 19:00:00;;;;;;;6.83;4.60;;;;;;;-2.98;100.00;99079.44;2314233;77;21032;-83
2021/12/20 19:03:05;;;;;;;9.93;4.10;;;;;;;-2.98;100.00;99078.16;2313024;77;20977;-87
2021/12/20 19:06:06;;;;;;;5.10;4.20;;;;;;;-3.01;100.00;99078.34;2313361;77;21019;-87
2021/12/20 19:09:16;;;;;;;5.87;3.90;;;;;;;-3.03;100.00;99089.93;2313351;77;21035;-88
2021/12/20 19:12:17;;;;;;;5.85;4.28;;;;;;;-3.05;100.00;99076.39;2313385;77;21094;-83
2021/12/20 19:15:20;;;;;;;7.42;5.17;;;;;;;-3.07;100.00;99082.52;2312821;77;21052;-81
2021/12/20 19:18:25;;;;;;;8.03;4.95;;;;;;;-3.14;100.00;99089.70;2129440;83;21529;-86
2021/12/20 19:21:25;;;;;;;8.25;5.90;;;;;;;-3.17;100.00;99092.45;2129457;84;21167;-84
2021/12/20 19:24:26;;;;;;;11.30;5.78;;;;;;;-3.20;100.00;99099.85;2129484;84;21065;-86
2021/12/20 19:27:27;;;;;;;9.88;6.55;;;;;;;-3.21;100.00;99100.73;2129836;84;21053;-85
2021/12/20 19:30:28;;;;;;;9.95;6.85;;;;;;;-3.24;100.00;99102.19;2128813;84;21022;-88
2021/12/20 19:33:29;;;;;;;13.95;7.60;;;;;;;-3.25;100.00;99110.78;2132806;83;21022;-86
2021/12/20 19:36:31;;;;;;;11.55;6.45;;;;;;;-3.28;100.00;99111.42;2136343;83;21085;-87
2021/12/20 19:39:33;;;;;;;9.48;5.62;;;;;;;-3.31;100.00;99120.53;2136561;83;21128;-86
2021/12/20 19:42:35;;;;;;;13.65;7.05;;;;;;;-3.35;100.00;99115.21;2136859;83;21629;-91
2021/12/20 19:45:36;;;;;;;24.10;9.63;;;;;;;-3.36;100.00;99123.35;2136860;83;21501;-90
2021/12/20 19:48:37;;;;;;;45.28;14.68;;;;;;;-3.36;100.00;99118.69;2136869;83;21006;-92
2021/12/20 19:51:38;;;;;;;69.62;24.07;;;;;;;-3.36;100.00;99124.63;2081838;85;21010;-94
2021/12/20 19:54:41;;;;;;;54.23;20.75;;;;;;;-3.36;100.00;99128.47;2072747;86;21027;-91
2021/12/20 19:57:41;;;;;;;42.03;16.67;;;;;;;-3.39;100.00;99130.35;2072502;85;21078;-89
2021/12/20 20:00:42;;;;;;;40.75;17.23;;;;;;;-3.47;100.00;99116.25;2127594;84;21338;-90
2021/12/20 20:03:43;;;;;;;46.55;19.70;;;;;;;-3.42;100.00;99135.64;2136878;83;21053;-87
2021/12/20 20:06:44;;;;;;;44.85;20.32;;;;;;;-3.44;100.00;99127.59;2081710;85;21026;-89
2021/12/20 20:09:45;;;;;;;47.67;19.98;;;;;;;-3.44;100.00;99117.81;2072409;86;21524;-91
2021/12/20 20:12:46;;;;;;;35.17;17.00;;;;;;;-3.44;100.00;99128.05;2127471;84;21113;-92
2021/12/20 20:15:46;;;;;;;34.27;14.40;;;;;;;-3.47;100.00;99132.06;2136914;83;20966;-93
2021/12/20 20:18:47;;;;;;;38.10;18.30;;;;;;;-3.52;100.00;99132.30;2082013;85;21062;-95
2021/12/20 20:21:48;;;;;;;37.65;18.65;;;;;;;-3.50;100.00;99134.31;2168869;80;21491;-89
2021/12/20 20:24:49;;;;;;;47.43;20.37;;;;;;;-3.52;100.00;99130.19;2220323;80;21564;-89
2021/12/20 20:27:50;;;;;;;41.90;18.45;;;;;;;-3.50;100.00;99138.61;2219980;80;21032;-90
2021/12/20 20:30:52;;;;;;;35.78;16.05;;;;;;;-3.51;100.00;99142.08;2193182;80;21008;-89
2021/12/20 20:33:53;;;;;;;35.15;16.52;;;;;;;-3.47;100.00;99141.03;2217669;80;21515;-88
2021/12/20 20:36:54;;;;;;;41.37;17.55;;;;;;;-3.40;100.00;99147.91;2225877;80;20960;-89
2021/12/20 20:40:04;;;;;;;42.13;19.17;;;;;;;-3.30;100.00;99148.61;2226160;80;21527;-89
2021/12/20 20:43:01;;;;;;;50.20;23.50;;;;;;;-3.21;100.00;99151.96;2223720;80;21035;-88
2021/12/20 20:46:02;;;;;;;64.10;28.27;;;;;;;-3.17;100.00;99153.47;2226252;80;21064;-89
2021/12/20 20:49:02;;;;;;;71.55;30.72;;;;;;;-3.12;100.00;99159.61;2225659;80;21010;-90
2021/12/20 20:52:03;;;;;;;62.78;28.73;;;;;;;-3.03;100.00;99153.98;2225734;80;21034;-88
2021/12/20 20:55:07;;;;;;;61.68;26.57;;;;;;;-2.96;100.00;99154.03;2226008;80;21038;-90
2021/12/20 20:58:07;;;;;;;64.58;29.55;;;;;;;-2.89;100.00;99155.81;2225493;79;21552;-90
2021/12/20 21:04:22;;;;;;;65.42;31.45;;;;;;;-2.82;100.00;99158.41;2109284;84;21619;-90
2021/12/20 21:07:22;;;;;;;67.60;29.20;;;;;;;-2.77;100.00;99158.14;2109063;84;21105;-89
2021/12/20 21:10:23;;;;;;;68.85;29.95;;;;;;;-2.76;100.00;99159.33;2109257;84;21085;-90
2021/12/20 21:13:24;;;;;;;56.10;27.55;;;;;;;-2.73;100.00;99159.19;2109329;84;21143;-90
2021/12/20 21:16:24;;;;;;;54.98;25.20;;;;;;;-2.72;100.00;99160.02;2109194;84;20969;-89
2021/12/20 21:19:26;;;;;;;39.40;19.87;;;;;;;-2.72;100.00;99156.16;2109148;84;21143;-89
2021/12/20 21:22:26;;;;;;;38.67;16.85;;;;;;;-2.71;100.00;99157.81;2109326;84;21082;-90
2021/12/20 21:25:27;;;;;;;34.70;17.87;;;;;;;-2.72;100.00;99163.86;2109921;84;21048;-88
2021/12/20 21:28:28;;;;;;;35.08;15.55;;;;;;;-2.72;100.00;99159.55;2109335;84;21029;-92
2021/12/20 21:31:29;;;;;;;28.07;13.90;;;;;;;-2.70;100.00;99165.41;2109214;84;21052;-91
2021/12/20 21:34:30;;;;;;;25.48;12.30;;;;;;;-2.65;100.00;99158.73;2109103;84;21584;-91
2021/12/20 21:37:30;;;;;;;24.57;12.88;;;;;;;-2.64;100.00;99166.36;2109365;84;21006;-90
2021/12/20 21:40:31;;;;;;;24.67;14.05;;;;;;;-2.61;100.00;99171.77;2156989;80;21484;-91
2021/12/20 21:43:32;;;;;;;23.95;12.88;;;;;;;-2.56;100.00;99167.22;2226922;80;21099;-92
2021/12/20 21:46:33;;;;;;;22.70;11.73;;;;;;;-2.53;100.00;99164.94;2226871;80;21000;-91
2021/12/20 21:49:33;;;;;;;23.40;11.95;;;;;;;-2.49;100.00;99167.69;2226416;80;21035;-92
2021/12/20 21:52:34;;;;;;;22.58;12.33;;;;;;;-2.49;100.00;99172.81;2226439;80;20968;-91
2021/12/20 21:55:35;;;;;;;25.20;13.18;;;;;;;-2.56;100.00;99176.20;2226737;80;21092;-91
2021/12/20 21:58:36;;;;;;;28.30;13.75;;;;;;;-2.64;100.00;99175.80;2226309;80;21216;-92
2021/12/20 22:01:38;;;;;;;36.58;17.40;;;;;;;-2.69;100.00;99167.52;2226362;80;21015;-93
2021/12/20 22:04:39;;;;;;;40.88;19.27;;;;;;;-2.76;100.00;99182.41;2226113;80;20978;-91
2021/12/20 22:10:42;;;;;;;38.02;17.07;;;;;;;-2.89;100.00;99194.25;2109374;84;21005;-93
2021/12/20 22:13:44;;;;;;;35.63;17.57;;;;;;;-2.97;100.00;99194.66;2109360;84;21057;-92
2021/12/20 22:16:45;;;;;;;36.83;15.05;;;;;;;-3.01;100.00;99198.31;2085815;84;21033;-93
2021/12/20 22:19:46;;;;;;;33.70;16.40;;;;;;;-3.06;100.00;99200.73;2109529;84;21007;-93
2021/12/20 22:22:47;;;;;;;40.10;17.62;;;;;;;-3.11;100.00;99200.14;2109635;84;21514;-93
2021/12/20 22:25:48;;;;;;;28.02;14.20;;;;;;;-3.15;100.00;99204.16;2109501;84;21101;-94
2021/12/20 22:28:49;;;;;;;30.60;15.38;;;;;;;-3.18;100.00;99206.06;2109438;84;21151;-94
2021/12/20 22:31:49;;;;;;;26.17;14.10;;;;;;;-3.16;100.00;99199.94;2109531;84;21564;-94
2021/12/20 22:34:50;;;;;;;28.20;14.30;;;;;;;-3.16;100.00;99205.52;2111729;83;21083;-93
2021/12/20 22:37:51;;;;;;;30.57;14.03;;;;;;;-3.17;100.00;99213.66;2113627;84;21132;-92
2021/12/20 22:40:52;;;;;;;24.18;14.15;;;;;;;-3.14;100.00;99207.55;2113049;84;21063;-92
2021/12/20 22:43:52;;;;;;;24.05;12.10;;;;;;;-3.11;100.00;99211.21;2112903;83;21603;-92
2021/12/20 22:46:53;;;;;;;23.98;12.73;;;;;;;-3.10;100.00;99208.23;2112405;83;21088;-91
2021/12/20 22:49:55;;;;;;;25.57;13.03;;;;;;;-3.12;100.00;99210.84;2112759;84;20982;-92
2021/12/20 22:52:56;;;;;;;26.20;12.93;;;;;;;-3.12;100.00;99203.16;2112621;84;21162;-92
2021/12/20 22:55:57;;;;;;;31.00;14.78;;;;;;;-3.13;100.00;99204.53;2113175;84;21073;-92
2021/12/20 22:58:58;;;;;;;29.90;14.93;;;;;;;-3.15;100.00;99211.84;2113182;84;20993;-91
2021/12/20 23:01:58;;;;;;;26.30;12.63;;;;;;;-3.11;100.00;99207.83;2113784;84;21025;-92
2021/12/20 23:04:59;;;;;;;19.20;11.45;;;;;;;-3.07;100.00;99211.90;2113392;84;21583;-92
2021/12/20 23:08:04;;;;;;;26.68;12.93;;;;;;;-3.04;100.00;99215.11;2199095;80;20980;-92
2021/12/20 23:11:03;;;;;;;31.80;13.38;;;;;;;-3.01;100.00;99211.58;2244171;79;20999;-93
2021/12/20 23:17:10;;;;;;;23.40;11.97;;;;;;;-2.96;100.00;99218.09;2262714;79;21008;-93
2021/12/20 23:20:10;;;;;;;21.75;10.63;;;;;;;-2.93;100.00;99221.77;2262295;79;21068;-91
2021/12/20 23:23:11;;;;;;;30.65;13.15;;;;;;;-2.91;100.00;99221.70;2262238;79;21040;-92
2021/12/20 23:26:12;;;;;;;23.52;12.25;;;;;;;-2.85;100.00;99218.79;2262227;79;21056;-92
2021/12/20 23:29:13;;;;;;;23.15;10.48;;;;;;;-2.80;100.00;99224.97;2261896;79;21029;-91
2021/12/20 23:32:14;;;;;;;20.62;11.00;;;;;;;-2.78;100.00;99223.97;2262202;79;21075;-92
2021/12/20 23:35:14;;;;;;;23.65;10.08;;;;;;;-2.75;100.00;99221.22;2262021;78;21532;-91
2021/12/20 23:38:18;;;;;;;16.32;9.30;;;;;;;-2.74;100.00;99229.31;2262271;79;21017;-92
2021/12/20 23:41:20;;;;;;;16.55;9.23;;;;;;;-2.72;100.00;99220.25;2262119;79;21053;-91
2021/12/20 23:44:20;;;;;;;13.83;7.40;;;;;;;-2.73;100.00;99218.14;2262384;78;21042;-92
2021/12/20 23:47:21;;;;;;;19.30;8.83;;;;;;;-2.72;100.00;99220.25;2262268;79;20973;-91
2021/12/20 23:50:22;;;;;;;16.12;8.83;;;;;;;-2.74;100.00;99218.20;2262322;79;21037;-92
2021/12/20 23:53:23;;;;;;;14.07;8.18;;;;;;;-2.72;100.00;99213.38;2262310;79;21603;-91
2021/12/20 23:56:24;;;;;;;20.50;8.85;;;;;;;-2.75;100.00;99214.81;2262404;79;21028;-91
2021/12/20 23:59:24;;;;;;;21.45;8.95;;;;;;;-2.75;100.00;99216.09;2262192;79;20966;-92
